createdAt,value
2023-02-25T00:59:18.373Z,7.79
2023-02-25T01:29:18.265Z,7.65
2023-02-25T02:29:18.080Z,7.21
2023-02-25T02:59:18.520Z,5.53
2023-02-25T03:29:18.156Z,5.33
2023-02-25T04:29:18.273Z,5.34
2023-02-25T04:29:18.621Z,5.08
2023-02-25T04:59:18.705Z,4.95
2023-02-25T05:29:18.041Z,4.91
2023-02-25T05:59:18.240Z,4.85
2023-02-25T06:29:17.807Z,4.39
2023-02-25T06:59:17.995Z,4.17
2023-02-25T07:29:17.921Z,4.66
2023-02-25T07:59:17.834Z,5.5
2023-02-25T08:29:18.002Z,7.42
2023-02-25T08:59:18.266Z,8.84
2023-02-25T09:29:17.786Z,10.02
2023-02-25T09:59:17.673Z,13.03
2023-02-25T10:29:17.903Z,12.81
2023-02-25T10:59:17.753Z,12.94
2023-02-25T11:29:17.660Z,13.19
2023-02-25T12:29:17.508Z,13.7
2023-02-25T12:59:18.885Z,13.26
2023-02-25T13:29:17.334Z,14.14
2023-02-25T13:59:17.434Z,13.88
2023-02-25T14:29:17.352Z,13.32
2023-02-25T14:59:17.353Z,12.08
2023-02-25T15:29:17.093Z,11.67
2023-02-25T15:59:17.097Z,10.28
2023-02-25T16:29:17.029Z,8.87
2023-02-25T16:59:17.086Z,7.91
2023-02-25T17:29:17.301Z,7.14
2023-02-25T17:59:17.099Z,6.81
2023-02-25T18:29:16.759Z,6.06
2023-02-25T18:59:17.275Z,5.93
2023-02-25T19:29:16.797Z,5.68
2023-02-25T19:59:17.040Z,5.47
2023-02-25T20:29:16.959Z,5.35
2023-02-25T20:59:16.855Z,5.22
2023-02-25T21:29:16.410Z,4.8
2023-02-25T21:59:17.013Z,4.69
2023-02-25T22:59:16.481Z,4.49
2023-02-25T23:29:16.430Z,3.93
2023-02-25T23:59:16.577Z,3.7
